createdAt,value
2022-11-25T00:00:35.572Z,10.63
2022-11-25T00:05:38.730Z,8.50
2022-11-25T00:10:42.937Z,6.43
2022-11-25T00:15:45.848Z,7.37
2022-11-25T00:20:48.790Z,6.03
2022-11-25T00:25:53.002Z,8.70
2022-11-25T00:30:55.930Z,8.70
2022-11-25T00:36:01.815Z,15.83
2022-11-25T00:41:23.444Z,8.20
2022-11-25T00:46:26.429Z,9.70
2022-11-25T00:51:29.342Z,5.43
2022-11-25T00:56:33.969Z,9.60
2022-11-25T01:01:37.845Z,7.80
2022-11-25T01:06:40.953Z,10.67
2022-11-25T01:11:45.220Z,7.70
2022-11-25T01:16:48.233Z,6.03
2022-11-25T01:21:51.340Z,5.17
2022-11-25T01:26:56.531Z,6.63
2022-11-25T01:31:59.461Z,9.47
2022-11-25T01:37:02.610Z,6.10
2022-11-25T01:42:06.921Z,5.67
2022-11-25T01:47:16.899Z,8.37
2022-11-25T01:52:25.932Z,10.77
2022-11-25T01:57:36.077Z,8.57
2022-11-25T02:02:39.272Z,4.63
2022-11-25T02:07:45.242Z,5.37
2022-11-25T02:12:50.211Z,7.70
2022-11-25T02:17:53.671Z,7.37
2022-11-25T02:23:04.268Z,5.17
2022-11-25T02:28:11.881Z,6.07
2022-11-25T02:33:15.479Z,6.50
2022-11-25T02:38:22.167Z,6.63
2022-11-25T02:43:27.289Z,4.77
2022-11-25T02:49:06.935Z,7.23
2022-11-25T02:53:57.191Z,7.43
2022-11-25T02:59:03.484Z,5.27
2022-11-25T03:04:07.283Z,4.20
2022-11-25T03:09:10.239Z,6.67
2022-11-25T03:14:16.046Z,4.27
2022-11-25T03:19:19.460Z,6.00
2022-11-25T03:24:22.355Z,4.20
2022-11-25T03:29:27.466Z,4.17
2022-11-25T03:34:30.433Z,2.57
2022-11-25T03:39:34.553Z,6.17
2022-11-25T03:44:39.143Z,4.90
2022-11-25T03:49:42.136Z,4.47
2022-11-25T03:54:46.412Z,7.37
2022-11-25T03:59:56.466Z,5.47
2022-11-25T04:04:59.619Z,5.47
2022-11-25T04:10:03.567Z,4.17
2022-11-25T04:15:11.106Z,8.60
2022-11-25T04:20:16.417Z,6.13
2022-11-25T04:25:23.981Z,5.60
2022-11-25T04:30:29.489Z,4.90
2022-11-25T04:35:32.569Z,7.80
2022-11-25T04:40:35.681Z,4.40
2022-11-25T04:46:13.052Z,5.10
2022-11-25T04:51:15.444Z,6.80
2022-11-25T04:56:20.645Z,3.50
2022-11-25T05:01:27.581Z,6.33
2022-11-25T05:06:38.553Z,9.73
2022-11-25T05:11:42.563Z,7.63
2022-11-25T05:16:47.103Z,8.80
2022-11-25T05:21:50.446Z,20.63
2022-11-25T05:26:54.519Z,10.00
2022-11-25T05:31:59.088Z,11.60
2022-11-25T05:37:02.152Z,7.27
2022-11-25T05:42:06.258Z,11.10
2022-11-25T05:47:10.673Z,8.77
2022-11-25T05:52:15.466Z,11.07
2022-11-25T05:57:26.870Z,5.90
2022-11-25T06:02:35.244Z,8.70
2022-11-25T06:07:38.296Z,8.53
2022-11-25T06:12:41.430Z,9.20
2022-11-25T06:17:46.255Z,7.80
2022-11-25T06:22:55.381Z,6.30
2022-11-25T06:28:12.966Z,8.33
2022-11-25T06:33:20.508Z,9.00
2022-11-25T06:38:24.833Z,9.47
2022-11-25T06:43:27.761Z,10.23
2022-11-25T06:48:32.180Z,10.47
2022-11-25T06:53:36.041Z,10.87
2022-11-25T06:58:40.317Z,19.13
2022-11-25T07:03:45.783Z,12.10
2022-11-25T07:08:49.596Z,13.17
2022-11-25T07:13:54.144Z,12.53
2022-11-25T07:19:00.123Z,8.83
2022-11-25T07:24:05.530Z,17.73
2022-11-25T07:29:36.425Z,10.60
2022-11-25T07:34:36.207Z,10.83
2022-11-25T07:39:39.539Z,12.83
2022-11-25T07:44:42.654Z,8.50
2022-11-25T07:50:08.938Z,16.33
2022-11-25T07:55:11.831Z,16.17
2022-11-25T08:00:16.166Z,17.07
2022-11-25T08:05:20.479Z,25.97
2022-11-25T08:10:23.437Z,17.83
2022-11-25T08:15:26.384Z,17.63
2022-11-25T08:20:31.486Z,15.87
2022-11-25T08:25:34.660Z,14.43
2022-11-25T08:30:37.722Z,14.90
2022-11-25T08:35:42.101Z,14.00
2022-11-25T08:40:46.715Z,15.63
2022-11-25T08:45:49.847Z,10.60
2022-11-25T08:50:56.126Z,12.83
2022-11-25T08:55:59.172Z,16.80
2022-11-25T09:01:02.839Z,14.70
2022-11-25T09:06:08.383Z,17.33
2022-11-25T09:11:12.078Z,14.13
2022-11-25T09:16:15.280Z,10.20
2022-11-25T09:21:19.851Z,11.30
2022-11-25T09:26:26.036Z,12.00
2022-11-25T09:31:29.370Z,11.40
2022-11-25T09:36:33.727Z,13.20
2022-11-25T09:42:23.020Z,21.80
2022-11-25T09:47:45.226Z,8.90
2022-11-25T09:53:04.009Z,9.70
2022-11-25T09:58:17.602Z,14.97
2022-11-25T10:03:30.402Z,8.00
2022-11-25T10:08:39.172Z,9.40
2022-11-25T10:13:49.266Z,8.50
2022-11-25T10:18:59.034Z,6.97
2022-11-25T10:24:04.944Z,13.40
2022-11-25T10:29:24.096Z,5.43
2022-11-25T10:34:35.174Z,6.87
2022-11-25T10:39:39.990Z,8.20
2022-11-25T10:44:43.407Z,7.20
2022-11-25T10:50:00.781Z,8.30
2022-11-25T10:55:12.985Z,5.60
2022-11-25T11:00:31.633Z,7.47
2022-11-25T11:05:34.796Z,4.13
2022-11-25T11:10:39.840Z,4.20
2022-11-25T11:15:48.039Z,4.70
2022-11-25T11:20:54.101Z,6.70
2022-11-25T11:26:04.361Z,7.13
2022-11-25T11:31:18.174Z,5.70
2022-11-25T11:36:35.618Z,4.93
2022-11-25T11:41:45.616Z,4.40
2022-11-25T11:47:02.477Z,4.73
2022-11-25T11:52:12.482Z,3.33
2022-11-25T11:57:29.129Z,4.33
2022-11-25T12:02:41.787Z,6.93
2022-11-25T12:07:53.192Z,2.87
2022-11-25T12:13:07.381Z,5.40
2022-11-25T12:18:21.854Z,3.30
2022-11-25T12:23:30.355Z,6.70
2022-11-25T12:28:41.353Z,4.43
2022-11-25T12:33:53.492Z,5.87
2022-11-25T12:39:02.902Z,3.73
2022-11-25T12:44:14.224Z,4.77
2022-11-25T12:49:22.665Z,5.10
2022-11-25T12:54:38.055Z,5.70
2022-11-25T13:00:25.416Z,7.67
2022-11-25T13:05:43.334Z,4.70
2022-11-25T13:11:09.163Z,6.40
2022-11-25T13:16:14.738Z,8.30
2022-11-25T13:21:20.016Z,2.80
2022-11-25T13:26:53.024Z,3.87
2022-11-25T13:31:59.913Z,5.73
2022-11-25T13:37:24.087Z,5.63
2022-11-25T13:42:29.091Z,6.90
2022-11-25T13:47:36.326Z,7.30
2022-11-25T13:52:42.885Z,6.63
2022-11-25T13:57:49.879Z,4.20
2022-11-25T14:02:52.872Z,3.80
2022-11-25T14:08:10.305Z,5.60
2022-11-25T14:13:42.483Z,9.87
2022-11-25T14:19:35.065Z,13.37
2022-11-25T14:24:35.320Z,4.10
2022-11-25T14:29:42.966Z,6.57
2022-11-25T14:34:49.790Z,4.63
2022-11-25T14:39:59.012Z,6.17
2022-11-25T14:45:03.403Z,6.43
2022-11-25T14:55:38.220Z,7.63
2022-11-25T15:00:53.091Z,4.37
2022-11-25T15:05:58.224Z,4.23
2022-11-25T15:11:03.470Z,10.57
2022-11-25T15:16:13.520Z,4.90
2022-11-25T15:21:18.600Z,3.57
2022-11-25T15:26:23.618Z,5.30
2022-11-25T15:31:31.200Z,9.03
2022-11-25T15:36:34.577Z,6.67
2022-11-25T15:41:38.093Z,9.73
2022-11-25T15:46:42.668Z,46.87
2022-11-25T15:51:52.483Z,21.30
2022-11-25T15:56:59.112Z,28.47
2022-11-25T16:02:03.556Z,26.07
2022-11-25T16:07:23.404Z,20.97
2022-11-25T16:12:26.364Z,29.17
2022-11-25T16:17:31.667Z,23.03
2022-11-25T16:22:34.616Z,32.33
2022-11-25T16:27:38.626Z,31.40
2022-11-25T16:32:42.902Z,29.87
2022-11-25T16:37:49.101Z,27.10
2022-11-25T16:42:53.389Z,25.77
2022-11-25T16:47:57.669Z,31.30
2022-11-25T16:53:01.488Z,33.37
2022-11-25T16:58:10.137Z,24.10
2022-11-25T17:03:14.554Z,23.73
2022-11-25T17:08:17.568Z,23.67
2022-11-25T17:13:23.252Z,30.03
2022-11-25T17:18:27.809Z,26.37
2022-11-25T17:23:30.703Z,31.23
2022-11-25T17:28:33.740Z,35.07
2022-11-25T17:33:39.866Z,33.37
2022-11-25T17:38:42.782Z,34.60
2022-11-25T17:43:47.499Z,40.50
2022-11-25T17:48:51.933Z,33.50
2022-11-25T17:53:54.851Z,44.23
2022-11-25T17:59:07.373Z,37.67
2022-11-25T18:04:23.101Z,37.83
2022-11-25T18:09:26.032Z,38.20
2022-11-25T18:14:33.211Z,41.97
2022-11-25T18:19:37.546Z,46.10
2022-11-25T18:24:41.135Z,38.33
2022-11-25T18:29:44.423Z,39.30
2022-11-25T18:34:48.661Z,36.07
2022-11-25T18:39:51.622Z,40.13
2022-11-25T18:44:56.124Z,49.17
2022-11-25T18:50:00.497Z,38.27
2022-11-25T18:55:03.424Z,36.60
2022-11-25T19:00:31.078Z,29.80
2022-11-25T19:05:33.579Z,14.73
2022-11-25T19:10:38.654Z,8.77
2022-11-25T19:15:43.739Z,10.50
2022-11-25T19:20:48.030Z,9.60
2022-11-25T19:25:51.073Z,6.23
2022-11-25T19:30:58.958Z,9.90
2022-11-25T19:36:03.416Z,12.03
2022-11-25T19:41:06.538Z,8.27
2022-11-25T19:46:29.159Z,12.07
2022-11-25T19:51:35.846Z,9.80
2022-11-25T19:56:40.124Z,16.23
2022-11-25T20:01:45.441Z,11.13
2022-11-25T20:06:50.493Z,10.77
2022-11-25T20:11:58.575Z,9.90
2022-11-25T20:17:01.603Z,14.57
2022-11-25T20:22:06.041Z,10.80
2022-11-25T20:27:11.233Z,9.93
2022-11-25T20:32:21.048Z,9.93
2022-11-25T20:37:26.241Z,13.07
2022-11-25T20:42:29.136Z,12.90
2022-11-25T20:47:32.274Z,12.23
2022-11-25T20:52:38.766Z,16.53
2022-11-25T20:57:41.754Z,11.23
2022-11-25T21:02:44.709Z,13.93
2022-11-25T21:07:50.856Z,11.40
2022-11-25T21:12:54.862Z,17.13
2022-11-25T21:17:58.526Z,10.80
2022-11-25T21:23:06.573Z,15.50
2022-11-25T21:28:16.335Z,16.50
2022-11-25T21:33:19.375Z,14.47
2022-11-25T21:38:26.164Z,15.00
2022-11-25T21:43:33.091Z,14.10
2022-11-25T21:48:36.647Z,13.73
2022-11-25T21:53:41.598Z,17.77
2022-11-25T21:58:44.998Z,20.73
2022-11-25T22:03:47.931Z,52.90
2022-11-25T22:08:52.496Z,21.93
2022-11-25T22:13:55.475Z,21.27
2022-11-25T22:18:59.133Z,12.10
2022-11-25T22:24:06.784Z,19.77
2022-11-25T22:29:14.002Z,20.20
2022-11-25T22:34:19.385Z,16.07
2022-11-25T22:39:25.529Z,20.27
2022-11-25T22:44:33.672Z,17.70
2022-11-25T22:49:41.455Z,14.07
2022-11-25T22:54:45.717Z,14.33
2022-11-25T22:59:48.666Z,16.90
2022-11-25T23:04:53.639Z,14.90
2022-11-25T23:09:57.957Z,12.57
2022-11-25T23:15:00.885Z,15.77
2022-11-25T23:20:03.906Z,14.33
2022-11-25T23:25:14.806Z,15.47
2022-11-25T23:30:19.527Z,17.83
2022-11-25T23:35:28.692Z,18.90
2022-11-25T23:40:33.414Z,21.87
2022-11-25T23:45:36.363Z,25.00
2022-11-25T23:50:39.256Z,21.97
2022-11-25T23:55:43.691Z,26.40
